Time;durP1;ratioP1;P1;durP2;ratioP2;P2;SDS_P1;SDS_P2;PMS_P1;PMS_P2;Temp;Humidity;BMP_temperature;BMP_pressure;BME280_temperature;BME280_humidity;BME280_pressure;Samples;Min_cycle;Max_cycle;Signal;HPM_P1;HPM_P2
2021/05/17 00:02:06;;;;;;;19.02;12.20;;;;;;;9.20;100.00;99958.97;3580903;40;20074;-61
2021/05/17 00:04:33;;;;;;;16.77;11.70;;;;;;;9.22;100.00;99957.00;3581235;40;20047;-61
2021/05/17 00:07:01;;;;;;;24.35;12.45;;;;;;;9.17;100.00;99960.13;3582475;40;20075;-62
2021/05/17 00:09:27;;;;;;;19.48;12.50;;;;;;;9.19;100.00;99949.25;3581510;40;20110;-61
2021/05/17 00:11:54;;;;;;;18.92;12.15;;;;;;;9.23;100.00;99951.47;3580766;40;20048;-61
2021/05/17 00:14:22;;;;;;;19.10;11.65;;;;;;;9.31;100.00;99948.03;3580239;40;20100;-61
2021/05/17 00:16:48;;;;;;;17.17;11.85;;;;;;;9.28;100.00;99951.03;3581966;40;20318;-61
2021/05/17 00:19:15;;;;;;;19.27;11.55;;;;;;;9.24;100.00;99952.31;3581214;40;20044;-62
2021/05/17 00:21:42;;;;;;;20.25;12.63;;;;;;;9.23;100.00;99943.44;3581185;40;20044;-61
2021/05/17 00:24:11;;;;;;;17.08;12.20;;;;;;;9.18;100.00;99942.19;3581242;40;20351;-61
2021/05/17 00:26:37;;;;;;;16.50;11.98;;;;;;;9.16;100.00;99942.34;3580368;40;20057;-61
2021/05/17 00:29:05;;;;;;;22.30;13.25;;;;;;;9.15;100.00;99950.53;3582132;40;20048;-62
2021/05/17 00:31:32;;;;;;;16.63;11.07;;;;;;;9.12;100.00;99941.78;3581497;40;20053;-61
2021/05/17 00:33:58;;;;;;;18.75;12.27;;;;;;;9.13;100.00;99939.94;3581316;40;20054;-61
2021/05/17 00:36:24;;;;;;;15.60;12.52;;;;;;;9.10;100.00;99937.56;3581373;40;20061;-61
2021/05/17 00:38:51;;;;;;;17.00;11.13;;;;;;;9.23;100.00;99940.75;3581660;40;20049;-63
2021/05/17 00:41:18;;;;;;;15.23;10.43;;;;;;;9.27;100.00;99943.97;3581260;40;20430;-60
2021/05/17 00:43:46;;;;;;;16.65;11.02;;;;;;;9.20;100.00;99945.56;3580628;40;20044;-61
2021/05/17 00:46:12;;;;;;;15.57;9.87;;;;;;;9.13;100.00;99942.63;3581442;40;20049;-62
2021/05/17 00:48:39;;;;;;;16.48;9.82;;;;;;;9.14;100.00;99944.31;3581118;40;20057;-62
2021/05/17 00:51:08;;;;;;;16.65;9.45;;;;;;;9.09;100.00;99936.69;3581212;40;20141;-62
2021/05/17 00:53:35;;;;;;;16.13;10.53;;;;;;;9.06;100.00;99934.31;3580865;40;20072;-64
2021/05/17 00:56:03;;;;;;;15.05;10.25;;;;;;;9.06;100.00;99931.63;3579938;40;20255;-61
2021/05/17 00:58:30;;;;;;;15.73;10.15;;;;;;;9.02;100.00;99924.88;3580597;40;20420;-61
2021/05/17 01:00:57;;;;;;;14.38;9.52;;;;;;;9.05;100.00;99926.41;3581236;40;20041;-60
2021/05/17 01:03:23;;;;;;;14.48;9.07;;;;;;;9.16;100.00;99930.72;3579389;40;20073;-62
2021/05/17 01:05:49;;;;;;;11.10;8.07;;;;;;;9.16;100.00;99930.72;3583017;40;20071;-62
2021/05/17 01:08:22;;;;;;;10.75;8.10;;;;;;;9.17;100.00;99927.06;3582627;40;20082;-61
2021/05/17 01:10:49;;;;;;;11.48;8.07;;;;;;;9.17;100.00;99930.59;3583035;40;20138;-63
2021/05/17 01:13:15;;;;;;;9.13;6.97;;;;;;;9.15;100.00;99931.75;3582867;40;20040;-62
2021/05/17 01:15:42;;;;;;;14.52;7.68;;;;;;;9.10;100.00;99932.19;3583210;40;20029;-61
2021/05/17 01:18:09;;;;;;;12.80;6.75;;;;;;;9.13;100.00;99937.25;3581894;39;20374;-64
2021/05/17 01:20:35;;;;;;;10.20;6.47;;;;;;;9.11;100.00;99940.09;3582776;40;20049;-60
2021/05/17 01:23:30;;;;;;;9.00;6.85;;;;;;;9.21;100.00;99931.97;3581981;40;20070;-60
2021/05/17 01:25:57;;;;;;;8.48;6.22;;;;;;;9.38;100.00;99932.16;3582575;40;20029;-61
2021/05/17 01:28:25;;;;;;;9.25;6.82;;;;;;;9.31;100.00;99928.41;3582058;40;20159;-63
2021/05/17 01:30:53;;;;;;;10.25;6.30;;;;;;;9.37;100.00;99936.69;3582643;40;20078;-62
2021/05/17 01:33:20;;;;;;;8.23;6.43;;;;;;;9.29;100.00;99932.06;3582167;40;20074;-61
2021/05/17 01:35:48;;;;;;;10.60;6.78;;;;;;;9.37;100.00;99936.69;3581725;40;20040;-61
2021/05/17 01:38:16;;;;;;;8.13;6.45;;;;;;;9.47;100.00;99940.16;3582246;40;20053;-62
2021/05/17 01:40:43;;;;;;;10.48;6.63;;;;;;;9.40;100.00;99932.88;3582615;40;20061;-61
2021/05/17 01:43:11;;;;;;;10.43;7.03;;;;;;;9.38;100.00;99940.22;3581995;40;21619;-62
2021/05/17 01:45:38;;;;;;;7.63;6.53;;;;;;;9.45;100.00;99942.16;3581983;40;20302;-62
2021/05/17 01:48:05;;;;;;;10.18;6.82;;;;;;;9.36;100.00;99940.34;3582315;40;20043;-62
2021/05/17 01:50:31;;;;;;;11.70;7.07;;;;;;;9.35;100.00;99930.63;3582485;40;20484;-63
2021/05/17 01:52:58;;;;;;;11.63;6.88;;;;;;;9.34;100.00;99939.69;3582747;40;20128;-60
2021/05/17 01:55:25;;;;;;;11.23;7.15;;;;;;;9.27;100.00;99930.53;3582470;40;20055;-61
2021/05/17 01:58:05;;;;;;;11.75;7.70;;;;;;;9.29;100.00;99937.44;3582329;40;20335;-62
2021/05/17 02:00:31;;;;;;;13.35;8.25;;;;;;;9.18;100.00;99928.75;3581975;40;20060;-61
2021/05/17 02:02:58;;;;;;;10.98;7.80;;;;;;;9.16;100.00;99930.72;3582883;40;20065;-63
2021/05/17 02:05:25;;;;;;;13.60;8.00;;;;;;;9.23;100.00;99926.44;3582248;40;20100;-61
2021/05/17 02:07:52;;;;;;;12.57;8.05;;;;;;;9.09;100.00;99925.13;3582955;40;20056;-61
2021/05/17 02:10:19;;;;;;;10.18;7.57;;;;;;;9.24;100.00;99933.53;3582184;40;20057;-62
2021/05/17 02:12:48;;;;;;;15.43;8.13;;;;;;;9.05;100.00;99929.94;3582399;40;20055;-63
2021/05/17 02:15:16;;;;;;;15.63;8.77;;;;;;;9.04;100.00;99927.41;3581135;40;20067;-63
2021/05/17 02:17:43;;;;;;;16.42;8.27;;;;;;;9.07;100.00;99935.19;3582347;40;20072;-63
2021/05/17 02:20:14;;;;;;;14.25;9.55;;;;;;;9.16;100.00;99931.59;3581817;40;20043;-61
2021/05/17 02:22:43;;;;;;;15.23;8.40;;;;;;;9.28;100.00;99925.00;3582217;40;20059;-61
2021/05/17 02:25:10;;;;;;;13.35;8.38;;;;;;;9.22;100.00;99924.78;3582446;40;20097;-61
2021/05/17 02:27:41;;;;;;;10.00;8.00;;;;;;;9.27;100.00;99925.16;3582602;40;20033;-61
2021/05/17 02:30:11;;;;;;;13.90;7.70;;;;;;;9.19;100.00;99930.47;3582565;40;20397;-61
2021/05/17 02:32:38;;;;;;;12.27;8.68;;;;;;;9.04;100.00;99932.78;3581971;40;20049;-60
2021/05/17 02:35:05;;;;;;;11.82;8.60;;;;;;;9.08;100.00;99939.53;3582125;40;20403;-61
2021/05/17 02:37:33;;;;;;;14.48;8.68;;;;;;;9.02;100.00;99930.25;3581269;40;20052;-61
2021/05/17 02:39:59;;;;;;;14.32;9.55;;;;;;;9.09;100.00;99934.03;3582168;40;20051;-61
2021/05/17 02:42:28;;;;;;;15.55;10.48;;;;;;;9.03;100.00;99926.56;3582249;40;20302;-60
2021/05/17 02:44:54;;;;;;;14.90;9.15;;;;;;;9.02;100.00;99930.25;3582404;40;20103;-62
2021/05/17 02:47:22;;;;;;;13.68;9.02;;;;;;;8.98;100.00;99933.38;3582156;40;20077;-61
2021/05/17 02:49:49;;;;;;;12.65;8.63;;;;;;;8.96;100.00;99930.00;3582070;40;20051;-60
2021/05/17 02:52:17;;;;;;;13.80;9.07;;;;;;;8.93;100.00;99931.97;3581664;40;20060;-61
2021/05/17 02:54:43;;;;;;;11.85;8.90;;;;;;;9.00;100.00;99926.88;3581394;40;20060;-61
2021/05/17 02:57:12;;;;;;;11.93;8.80;;;;;;;8.99;100.00;99940.44;3581818;40;20045;-61
2021/05/17 03:00:01;;;;;;;13.98;9.60;;;;;;;9.04;100.00;99938.13;3582567;40;20061;-62
2021/05/17 03:02:31;;;;;;;12.50;8.38;;;;;;;8.86;100.00;99936.28;3580431;40;20059;-61
2021/05/17 03:04:59;;;;;;;12.05;9.27;;;;;;;8.91;100.00;99938.50;3581658;40;20044;-62
2021/05/17 03:07:28;;;;;;;12.88;9.18;;;;;;;8.84;100.00;99942.75;3581349;40;20055;-62
2021/05/17 03:09:55;;;;;;;15.98;10.23;;;;;;;8.90;100.00;99942.16;3582294;40;20043;-61
2021/05/17 03:12:22;;;;;;;16.65;10.68;;;;;;;8.89;100.00;99943.16;3581171;40;20064;-61
2021/05/17 03:14:51;;;;;;;19.55;10.65;;;;;;;8.84;100.00;99937.41;3581566;40;20040;-60
2021/05/17 03:17:18;;;;;;;17.53;10.40;;;;;;;8.94;100.00;99938.19;3581301;40;20114;-61
2021/05/17 03:19:45;;;;;;;17.73;10.80;;;;;;;8.91;100.00;99950.06;3581348;40;20125;-61
2021/05/17 03:22:11;;;;;;;15.80;10.20;;;;;;;8.89;100.00;99937.78;3580447;40;20049;-60
2021/05/17 03:24:41;;;;;;;16.20;10.95;;;;;;;8.98;100.00;99944.97;3582100;40;20052;-61
2021/05/17 03:27:16;;;;;;;16.88;11.07;;;;;;;8.98;100.00;99944.97;3581281;40;20052;-61
2021/05/17 03:29:42;;;;;;;13.50;9.73;;;;;;;8.96;100.00;99941.56;3581783;40;20047;-61
2021/05/17 03:32:08;;;;;;;15.20;10.45;;;;;;;8.98;100.00;99936.91;3580870;40;20029;-62
2021/05/17 03:34:34;;;;;;;18.83;11.18;;;;;;;9.02;100.00;99940.13;3581605;40;20049;-61
2021/05/17 03:37:01;;;;;;;16.02;10.27;;;;;;;8.98;100.00;99934.25;3581323;40;20399;-63
2021/05/17 03:39:27;;;;;;;13.40;10.30;;;;;;;9.01;100.00;99939.31;3582099;40;20041;-60
2021/05/17 03:41:52;;;;;;;16.90;10.30;;;;;;;8.98;100.00;99939.59;3582602;40;20133;-62
2021/05/17 03:44:18;;;;;;;17.10;11.30;;;;;;;8.87;100.00;99937.09;3581830;40;20108;-61
2021/05/17 03:46:44;;;;;;;16.70;10.45;;;;;;;8.90;100.00;99947.53;3580714;40;20044;-62
2021/05/17 03:49:10;;;;;;;18.95;10.93;;;;;;;8.87;100.00;99939.78;3581604;40;20408;-61
2021/05/17 03:51:36;;;;;;;17.15;11.75;;;;;;;8.81;100.00;99945.75;3580605;40;20048;-62
2021/05/17 03:54:04;;;;;;;16.98;12.50;;;;;;;8.79;100.00;99940.53;3581011;40;20060;-61
2021/05/17 03:56:30;;;;;;;17.33;11.90;;;;;;;8.72;100.00;99942.94;3581166;40;20043;-61
2021/05/17 03:58:56;;;;;;;20.05;12.63;;;;;;;8.78;100.00;99944.19;3581775;40;20053;-61
2021/05/17 04:01:22;;;;;;;21.08;13.10;;;;;;;8.82;100.00;99939.38;3581187;40;20084;-60
2021/05/17 04:03:48;;;;;;;22.80;13.65;;;;;;;8.89;100.00;99941.34;3581348;40;20035;-61
2021/05/17 04:06:19;;;;;;;27.02;17.05;;;;;;;8.91;100.00;99949.25;3581209;40;20056;-61
2021/05/17 04:14:14;;;;;;;39.50;18.55;;;;;;;9.00;100.00;99942.97;3580748;40;20063;-62
2021/05/17 04:16:40;;;;;;;39.85;18.30;;;;;;;9.04;100.00;99939.00;3581621;40;20052;-61
2021/05/17 04:19:05;;;;;;;33.00;16.20;;;;;;;9.05;100.00;99938.00;3581689;40;20052;-61
2021/05/17 04:21:31;;;;;;;39.33;17.65;;;;;;;9.00;100.00;99942.97;3581219;40;20297;-61
2021/05/17 04:23:57;;;;;;;37.42;17.17;;;;;;;9.10;100.00;99942.94;3581683;40;20122;-62
2021/05/17 04:26:23;;;;;;;43.60;20.05;;;;;;;9.10;100.00;99943.78;3579916;40;20080;-61
2021/05/17 04:28:50;;;;;;;34.38;18.20;;;;;;;9.17;100.00;99946.72;3581586;40;20051;-60
2021/05/17 04:31:16;;;;;;;40.42;18.83;;;;;;;9.22;100.00;99951.63;3580565;40;20113;-61
2021/05/17 04:33:42;;;;;;;33.22;17.58;;;;;;;9.26;100.00;99942.25;3581052;40;20064;-60
2021/05/17 04:36:08;;;;;;;31.67;16.65;;;;;;;9.28;100.00;99945.66;3580504;40;20303;-61
2021/05/17 04:38:34;;;;;;;37.17;16.40;;;;;;;9.34;100.00;99950.41;3581541;40;20041;-60
2021/05/17 04:41:00;;;;;;;33.65;16.67;;;;;;;9.35;100.00;99957.50;3580620;40;20048;-62
2021/05/17 04:43:26;;;;;;;35.33;16.58;;;;;;;9.35;100.00;99956.63;3580925;40;20055;-62
2021/05/17 04:45:53;;;;;;;28.90;15.45;;;;;;;9.43;100.00;99954.88;3580887;40;20045;-60
2021/05/17 04:48:19;;;;;;;31.77;17.33;;;;;;;9.47;100.00;99960.81;3580863;40;20045;-61
2021/05/17 04:50:45;;;;;;;32.67;15.90;;;;;;;9.50;100.00;99965.03;3581179;40;20130;-62
2021/05/17 04:53:11;;;;;;;33.85;16.48;;;;;;;9.53;100.00;99957.50;3581158;40;20053;-62
2021/05/17 04:55:37;;;;;;;35.97;17.77;;;;;;;9.56;100.00;99964.44;3581226;40;20060;-63
2021/05/17 04:58:04;;;;;;;34.33;16.65;;;;;;;9.59;100.00;99964.13;3581488;40;20408;-61
2021/05/17 05:00:30;;;;;;;37.55;17.67;;;;;;;9.50;100.00;99965.03;3581511;40;20059;-60
2021/05/17 05:02:57;;;;;;;28.25;15.80;;;;;;;9.52;100.00;99963.88;3581259;40;20063;-60
2021/05/17 05:07:49;;;;;;;37.28;17.15;;;;;;;9.67;100.00;99961.50;3615345;22;20056;-61
2021/05/17 05:10:15;;;;;;;32.40;16.15;;;;;;;9.76;100.00;99962.44;3580171;40;20134;-61
2021/05/17 05:12:41;;;;;;;34.72;17.02;;;;;;;9.74;100.00;99967.97;3580616;40;20082;-61
2021/05/17 05:15:08;;;;;;;34.72;15.77;;;;;;;9.80;100.00;99964.69;3580515;40;20078;-60
2021/05/17 05:17:34;;;;;;;28.17;15.50;;;;;;;9.93;100.00;99966.97;3581062;40;20056;-61
2021/05/17 05:20:01;;;;;;;26.95;14.27;;;;;;;10.06;100.00;99963.91;3580237;40;20318;-61
2021/05/17 05:22:27;;;;;;;30.13;14.45;;;;;;;10.06;100.00;99965.75;3580976;40;20089;-61
2021/05/17 05:24:54;;;;;;;28.05;14.23;;;;;;;10.01;100.00;99968.88;3580098;40;20045;-62
2021/05/17 05:27:24;;;;;;;32.08;14.07;;;;;;;10.20;100.00;99970.56;3580430;40;20102;-61
2021/05/17 05:32:36;;;;;;;27.73;14.52;;;;;;;10.22;100.00;99965.88;3577837;40;20048;-61
2021/05/17 05:35:04;;;;;;;33.05;14.82;;;;;;;10.28;100.00;99964.41;3579031;40;20037;-63
2021/05/17 05:37:30;;;;;;;26.55;12.80;;;;;;;10.25;100.00;99964.72;3580574;40;20408;-63
2021/05/17 05:39:56;;;;;;;22.80;12.77;;;;;;;10.18;100.00;99965.34;3581065;40;20057;-61
2021/05/17 05:42:24;;;;;;;23.63;12.57;;;;;;;10.16;100.00;99970.03;3578645;40;20081;-64
2021/05/17 05:44:50;;;;;;;23.55;11.95;;;;;;;10.13;100.00;99966.81;3579516;40;20423;-63
2021/05/17 05:47:17;;;;;;;24.17;12.65;;;;;;;10.11;100.00;99964.25;3579921;40;20063;-61
2021/05/17 05:49:44;;;;;;;22.02;11.38;;;;;;;9.99;100.00;99969.03;3579338;40;20058;-61
2021/05/17 05:52:11;;;;;;;28.25;12.60;;;;;;;9.96;100.00;99965.81;3581336;40;20053;-61
2021/05/17 05:54:37;;;;;;;25.05;11.77;;;;;;;10.01;100.00;99968.88;3582357;40;20055;-61
2021/05/17 05:57:06;;;;;;;23.20;11.52;;;;;;;10.06;100.00;99966.59;3582077;40;20328;-62
2021/05/17 05:59:32;;;;;;;22.02;12.52;;;;;;;10.05;100.00;99975.63;3582569;40;20660;-62
2021/05/17 06:01:58;;;;;;;21.73;12.63;;;;;;;10.01;100.00;99971.56;3581835;40;20061;-61
2021/05/17 06:04:24;;;;;;;20.77;11.98;;;;;;;10.03;100.00;99969.59;3581787;40;20078;-59
2021/05/17 06:06:50;;;;;;;19.55;11.07;;;;;;;9.97;100.00;99972.91;3581879;40;20149;-63
2021/05/17 06:09:18;;;;;;;26.88;12.10;;;;;;;9.94;100.00;99971.34;3582024;40;20041;-62
2021/05/17 06:11:44;;;;;;;22.73;11.98;;;;;;;9.97;100.00;99975.59;3582166;40;20055;-62
2021/05/17 06:14:11;;;;;;;23.02;11.95;;;;;;;9.94;100.00;99979.41;3581806;40;20068;-61
2021/05/17 06:16:38;;;;;;;25.23;12.23;;;;;;;9.96;100.00;99976.56;3582080;40;20053;-62
2021/05/17 06:19:05;;;;;;;27.50;13.52;;;;;;;10.04;100.00;99979.34;3581136;40;20045;-64
2021/05/17 06:21:31;;;;;;;27.75;13.05;;;;;;;10.01;100.00;99979.63;3582074;40;20158;-62
2021/05/17 06:23:58;;;;;;;30.02;13.20;;;;;;;10.05;100.00;99974.81;3581356;40;20040;-61
2021/05/17 06:26:26;;;;;;;24.00;12.57;;;;;;;10.14;100.00;99985.50;3581001;40;20158;-63
2021/05/17 06:28:52;;;;;;;25.02;12.85;;;;;;;10.15;100.00;99987.16;3574234;40;20056;-63
2021/05/17 06:31:19;;;;;;;27.77;13.10;;;;;;;10.25;100.00;99980.88;3577774;40;20047;-62
2021/05/17 06:33:46;;;;;;;25.10;12.68;;;;;;;10.25;100.00;99992.47;3581652;40;20303;-62
2021/05/17 06:36:15;;;;;;;23.10;12.80;;;;;;;10.32;100.00;99992.66;3581861;40;20048;-61
2021/05/17 06:38:41;;;;;;;24.80;13.23;;;;;;;10.43;100.00;99981.69;3580203;40;20052;-62
2021/05/17 06:41:07;;;;;;;31.63;14.10;;;;;;;10.42;100.00;99984.56;3582132;40;20062;-61
2021/05/17 06:43:35;;;;;;;28.33;13.70;;;;;;;10.39;100.00;99982.19;3582363;40;20058;-63
2021/05/17 06:46:02;;;;;;;23.85;13.05;;;;;;;10.41;100.00;99981.03;3581839;40;20041;-64
2021/05/17 06:48:28;;;;;;;27.25;13.13;;;;;;;10.58;100.00;99978.44;3582350;40;20397;-63
2021/05/17 06:50:55;;;;;;;26.90;14.40;;;;;;;10.76;100.00;99979.25;3580959;40;20047;-62
2021/05/17 06:53:22;;;;;;;32.25;13.93;;;;;;;10.71;100.00;99981.56;3578764;40;20071;-62
2021/05/17 06:55:57;;;;;;;24.63;13.32;;;;;;;10.80;100.00;99990.53;3580248;40;20072;-62
2021/05/17 06:58:26;;;;;;;23.20;12.65;;;;;;;10.83;100.00;99991.03;3581106;40;20069;-62
2021/05/17 07:00:53;;;;;;;27.63;14.57;;;;;;;10.89;100.00;99986.88;3581557;40;20365;-63
2021/05/17 07:03:22;;;;;;;25.35;13.00;;;;;;;10.98;100.00;99987.75;3579588;40;20062;-63
2021/05/17 07:05:49;;;;;;;29.08;13.50;;;;;;;11.12;100.00;99984.47;3581859;40;20052;-63
2021/05/17 07:13:45;;;;;;;16.20;10.35;;;;;;;11.09;100.00;99992.03;3580400;40;20098;-61
2021/05/17 07:16:11;;;;;;;26.17;12.50;;;;;;;11.20;100.00;99987.22;3581291;40;20057;-62
2021/05/17 07:18:37;;;;;;;19.17;10.70;;;;;;;11.29;100.00;99990.78;3580393;40;20052;-64
2021/05/17 07:23:48;;;;;;;16.13;10.65;;;;;;;11.62;100.00;99993.59;3580546;40;20039;-63
2021/05/17 07:26:18;;;;;;;14.65;9.70;;;;;;;11.58;100.00;99993.06;3581850;40;20040;-62
2021/05/17 07:28:47;;;;;;;12.50;9.15;;;;;;;11.69;100.00;99996.44;3582763;40;20052;-63
2021/05/17 07:31:15;;;;;;;10.88;8.68;;;;;;;11.78;100.00;100002.69;3579794;40;20045;-62
2021/05/17 07:33:41;;;;;;;10.68;8.27;;;;;;;11.73;100.00;100000.50;3580616;40;20411;-61
2021/05/17 07:36:08;;;;;;;10.90;7.93;;;;;;;11.54;100.00;100009.72;3580751;40;20029;-62
2021/05/17 07:38:34;;;;;;;11.73;8.50;;;;;;;11.48;100.00;100005.00;3580348;40;20052;-63
2021/05/17 07:41:01;;;;;;;10.85;7.32;;;;;;;11.36;100.00;99999.03;3581048;40;20037;-63
2021/05/17 07:43:27;;;;;;;12.52;8.10;;;;;;;11.31;100.00;100004.09;3579232;40;20048;-62
2021/05/17 07:45:54;;;;;;;12.98;7.25;;;;;;;11.10;100.00;100002.66;3580957;40;20061;-62
2021/05/17 07:48:22;;;;;;;13.35;7.03;;;;;;;11.18;100.00;100008.06;3578809;40;20424;-62
2021/05/17 07:50:48;;;;;;;12.75;7.95;;;;;;;11.20;100.00;100008.75;3578742;40;20045;-62
2021/05/17 07:53:15;;;;;;;11.60;7.97;;;;;;;11.17;100.00;100006.41;3579846;40;20091;-63
2021/05/17 07:55:42;;;;;;;12.02;9.23;;;;;;;11.16;100.00;100009.22;3579317;40;20056;-63
2021/05/17 07:58:09;;;;;;;14.48;9.32;;;;;;;11.19;100.00;100006.22;3580289;40;20052;-63
2021/05/17 08:00:35;;;;;;;13.43;8.95;;;;;;;11.09;100.00;100009.03;3579493;40;20096;-63
2021/05/17 08:03:01;;;;;;;15.45;9.27;;;;;;;11.11;100.00;100020.47;3580832;40;20049;-63
2021/05/17 08:05:31;;;;;;;13.48;8.95;;;;;;;11.14;100.00;100019.31;3580536;40;20049;-62
2021/05/17 08:07:57;;;;;;;;;;;;;;;10.83;100.00;100017.97;3580683;40;20351;-63
2021/05/17 08:10:23;;;;;;;15.25;9.60;;;;;;;11.00;100.00;100023.47;3580080;40;19940;-63
2021/05/17 08:12:49;;;;;;;13.55;9.68;;;;;;;10.98;100.00;100020.06;3581021;40;20056;-64
2021/05/17 08:15:15;;;;;;;15.98;9.82;;;;;;;10.94;100.00;100016.00;3580459;40;20135;-63
2021/05/17 08:17:41;;;;;;;15.23;10.70;;;;;;;10.87;100.00;100018.50;3580574;40;20049;-62
2021/05/17 08:20:07;;;;;;;18.17;10.85;;;;;;;10.96;100.00;100016.72;3581612;40;20045;-64
2021/05/17 08:22:38;;;;;;;15.02;11.48;;;;;;;11.18;100.00;100020.69;3644510;22;20073;-63
2021/05/17 08:25:06;;;;;;;17.48;10.57;;;;;;;11.40;100.00;100019.28;3564767;40;20423;-63
2021/05/17 08:27:32;;;;;;;16.10;10.13;;;;;;;11.53;100.00;100016.97;3559335;40;20053;-62
2021/05/17 08:29:58;;;;;;;18.20;10.52;;;;;;;11.47;100.00;100028.41;3556310;40;20041;-63
2021/05/17 08:32:24;;;;;;;13.43;9.93;;;;;;;11.28;100.00;100020.56;3559382;40;20049;-63
2021/05/17 08:34:50;;;;;;;17.08;10.48;;;;;;;11.31;100.00;100022.94;3564756;40;20071;-63
2021/05/17 08:37:16;;;;;;;16.88;10.98;;;;;;;11.54;100.00;100029.44;3556230;40;20046;-62
2021/05/17 08:39:42;;;;;;;15.30;10.30;;;;;;;11.54;100.00;100026.75;3560319;40;20061;-63
2021/05/17 08:42:09;;;;;;;20.05;10.90;;;;;;;12.00;100.00;100025.53;3557725;40;20169;-63
2021/05/17 08:44:37;;;;;;;16.70;10.35;;;;;;;12.40;100.00;100032.00;3560330;40;20041;-63
2021/05/17 08:47:03;;;;;;;14.82;10.68;;;;;;;12.21;100.00;100039.41;3564571;40;20038;-63
2021/05/17 08:49:29;;;;;;;15.98;10.68;;;;;;;12.51;100.00;100031.63;3564327;40;20049;-62
2021/05/17 08:51:55;;;;;;;14.85;10.13;;;;;;;12.58;100.00;100037.22;3565992;40;20049;-63
2021/05/17 08:54:21;;;;;;;17.45;9.55;;;;;;;12.53;100.00;100032.34;3565955;40;20413;-62
2021/05/17 08:56:48;;;;;;;16.13;9.75;;;;;;;12.43;100.00;100034.34;3564759;40;20037;-62
2021/05/17 08:59:16;;;;;;;14.43;9.55;;;;;;;12.61;100.00;100035.00;3565896;40;20053;-60
2021/05/17 09:01:42;;;;;;;13.82;9.70;;;;;;;12.57;100.00;100039.09;3564391;40;20048;-62
2021/05/17 09:04:11;;;;;;;14.38;10.10;;;;;;;12.77;100.00;100033.31;3563742;40;20045;-63
2021/05/17 09:06:40;;;;;;;16.65;10.02;;;;;;;12.84;100.00;100034.34;3563794;40;20046;-63
2021/05/17 09:09:08;;;;;;;14.00;9.13;;;;;;;13.52;100.00;100034.00;3565676;40;20048;-62
2021/05/17 09:11:34;;;;;;;15.02;8.77;;;;;;;13.68;100.00;100036.63;3565024;40;20388;-63
2021/05/17 09:14:09;;;;;;;11.25;8.00;;;;;;;13.35;100.00;100035.91;3565164;40;20033;-62
2021/05/17 09:16:51;;;;;;;10.88;8.75;;;;;;;13.02;100.00;100036.00;3564310;40;20057;-63
2021/05/17 09:19:19;;;;;;;15.63;8.82;;;;;;;13.41;100.00;100043.31;3559759;40;20050;-62
2021/05/17 09:22:10;;;;;;;10.23;9.10;;;;;;;13.29;100.00;100032.88;3563601;40;20054;-63
2021/05/17 09:24:46;;;;;;;15.88;10.32;;;;;;;13.05;100.00;100032.94;3564874;40;20064;-65
2021/05/17 09:27:14;;;;;;;12.50;9.48;;;;;;;13.27;100.00;100037.59;3569407;40;20052;-62
2021/05/17 09:29:43;;;;;;;11.05;9.07;;;;;;;12.98;100.00;100046.28;3571224;40;20053;-64
2021/05/17 09:32:17;;;;;;;15.68;10.07;;;;;;;12.87;100.00;100050.19;3568013;40;20087;-64
2021/05/17 09:34:45;;;;;;;16.15;10.40;;;;;;;12.46;100.00;100060.19;3565866;40;20099;-64
2021/05/17 09:37:11;;;;;;;22.00;10.55;;;;;;;12.35;100.00;100055.94;3568881;40;20130;-66
2021/05/17 09:39:47;;;;;;;14.50;9.18;;;;;;;12.11;100.00;100054.91;3569262;40;20113;-64
2021/05/17 09:42:13;;;;;;;11.48;8.82;;;;;;;12.22;100.00;100053.72;3568471;40;20053;-64
2021/05/17 09:44:41;;;;;;;14.50;9.05;;;;;;;12.16;100.00;100057.09;3566767;40;20277;-65
2021/05/17 09:47:09;;;;;;;15.18;10.23;;;;;;;12.10;100.00;100053.19;3565379;40;20053;-64
2021/05/17 09:49:38;;;;;;;13.60;10.00;;;;;;;12.17;100.00;100056.91;3567276;40;20049;-64
2021/05/17 09:52:11;;;;;;;13.68;10.25;;;;;;;12.43;100.00;100048.69;3565906;40;20050;-64
2021/05/17 09:54:58;;;;;;;14.02;10.05;;;;;;;12.78;100.00;100052.06;3566775;40;20085;-63
2021/05/17 09:57:26;;;;;;;12.45;9.38;;;;;;;13.07;100.00;100053.38;3566243;40;20288;-63
2021/05/17 09:59:54;;;;;;;13.23;10.10;;;;;;;12.53;100.00;100053.06;3569577;40;20077;-61
2021/05/17 10:02:35;;;;;;;16.85;9.95;;;;;;;12.83;100.00;100054.25;3566378;40;20313;-63
2021/05/17 10:05:19;;;;;;;14.18;10.15;;;;;;;13.18;100.00;100049.44;3567443;40;20065;-62
2021/05/17 10:07:47;;;;;;;13.70;9.02;;;;;;;13.33;100.00;100050.41;3568567;40;20100;-62
2021/05/17 10:10:14;;;;;;;15.02;10.23;;;;;;;13.08;100.00;100052.34;3569821;40;20045;-63
2021/05/17 10:12:41;;;;;;;14.45;10.15;;;;;;;13.19;100.00;100048.44;3569801;40;20044;-62
2021/05/17 10:15:09;;;;;;;14.23;10.82;;;;;;;13.23;100.00;100049.75;3567388;40;20043;-62
2021/05/17 10:17:37;;;;;;;13.20;10.18;;;;;;;13.32;100.00;100047.88;3569267;40;20061;-62
2021/05/17 10:20:05;;;;;;;15.10;10.73;;;;;;;13.75;100.00;100058.38;3568556;40;20142;-62
2021/05/17 10:22:31;;;;;;;14.00;10.48;;;;;;;14.12;100.00;100064.94;3565051;40;20077;-63
2021/05/17 10:24:59;;;;;;;12.43;9.60;;;;;;;14.16;100.00;100059.00;3560522;40;20151;-63
2021/05/17 10:27:27;;;;;;;11.02;8.93;;;;;;;14.35;100.00;100065.81;3565166;40;20073;-62
2021/05/17 10:29:59;;;;;;;12.95;9.27;;;;;;;14.70;100.00;100063.50;3567063;40;20062;-62
2021/05/17 10:32:44;;;;;;;16.25;10.85;;;;;;;14.81;100.00;100064.09;3639661;22;20055;-62
2021/05/17 10:35:15;;;;;;;19.50;15.23;;;;;;;14.78;100.00;100057.19;3605668;39;20055;-63
2021/05/17 10:37:44;;;;;;;14.60;13.10;;;;;;;15.19;100.00;100055.94;3643658;22;20070;-63
2021/05/17 10:40:15;;;;;;;11.90;9.20;;;;;;;14.76;100.00;100061.13;3597742;39;20381;-63
2021/05/17 10:42:49;;;;;;;13.80;9.82;;;;;;;14.64;100.00;100060.72;3596474;39;20043;-63
2021/05/17 10:48:22;;;;;;;14.65;11.20;;;;;;;14.30;100.00;100065.50;3601512;39;20105;-62
2021/05/17 10:50:50;;;;;;;15.90;13.02;;;;;;;14.10;100.00;100073.22;3600893;39;20044;-63
2021/05/17 10:53:42;;;;;;;13.07;11.25;;;;;;;13.96;100.00;100072.13;3598616;39;20060;-62
2021/05/17 10:56:09;;;;;;;13.50;10.55;;;;;;;13.87;100.00;100077.75;3597954;39;20047;-62
2021/05/17 11:01:53;;;;;;;13.75;11.50;;;;;;;13.92;100.00;100087.03;3599440;39;20321;-63
2021/05/17 11:04:41;;;;;;;14.82;10.85;;;;;;;13.80;100.00;100083.06;3595206;39;20048;-63
2021/05/17 11:07:19;;;;;;;20.38;14.90;;;;;;;13.67;100.00;100081.72;3597783;39;20389;-62
2021/05/17 11:10:13;;;;;;;12.27;9.95;;;;;;;13.45;100.00;100093.31;3600276;39;20047;-60
2021/05/17 11:13:01;;;;;;;10.50;9.23;;;;;;;13.51;100.00;100084.50;3584696;39;20148;-64
2021/05/17 11:15:46;;;;;;;11.63;9.20;;;;;;;13.54;100.00;100089.56;3599724;39;20051;-63
2021/05/17 11:18:22;;;;;;;14.57;10.23;;;;;;;13.42;100.00;100089.09;3599337;39;20066;-62
2021/05/17 11:20:51;;;;;;;11.10;8.65;;;;;;;13.57;100.00;100100.03;3599748;39;20048;-63
2021/05/17 11:23:19;;;;;;;;;;;;;;;13.48;100.00;100096.50;3598063;39;20050;-63
2021/05/17 11:26:00;;;;;;;12.43;11.15;;;;;;;13.53;100.00;100103.25;3600621;39;20305;-62
2021/05/17 11:28:55;;;;;;;11.02;9.88;;;;;;;13.63;100.00;100112.88;3599347;39;20129;-62
2021/05/17 11:31:41;;;;;;;14.10;11.52;;;;;;;13.49;100.00;100119.00;3600295;39;20317;-63
2021/05/17 11:34:28;;;;;;;12.40;10.00;;;;;;;13.52;100.00;100117.81;3599545;39;20047;-63
2021/05/17 11:37:14;;;;;;;11.82;9.02;;;;;;;13.48;100.00;100128.09;3600205;39;20521;-62
2021/05/17 11:39:41;;;;;;;9.85;8.10;;;;;;;13.38;100.00;100127.47;3589498;39;20056;-61
2021/05/17 11:42:10;;;;;;;4.70;4.20;;;;;;;13.14;100.00;100142.66;3588473;40;20051;-64
2021/05/17 11:44:39;;;;;;;5.43;4.93;;;;;;;12.96;100.00;100142.84;3589807;40;20040;-64
2021/05/17 11:47:07;;;;;;;4.68;4.07;;;;;;;13.00;100.00;100151.44;3589763;40;20048;-61